Time;durP1;ratioP1;P1;durP2;ratioP2;P2;SDS_P1;SDS_P2;PMS_P1;PMS_P2;Temp;Humidity;BMP_temperature;BMP_pressure;BME280_temperature;BME280_humidity;BME280_pressure;Samples;Min_cycle;Max_cycle;Signal;HPM_P1;HPM_P2
2024/03/19 00:01:54;;;;;;;17.85;12.60;;;;;;;29.88;74.19;101114.72;5016479;28;70625;-30
2024/03/19 00:04:23;;;;;;;16.00;11.70;;;;;;;29.89;74.21;101119.91;5028906;28;67021;-30
2024/03/19 00:06:52;;;;;;;25.63;12.55;;;;;;;29.97;73.77;101119.69;5024207;28;69436;-31
2024/03/19 00:09:21;;;;;;;25.52;12.48;;;;;;;29.95;73.97;101123.63;5018513;28;66318;-31
2024/03/19 00:11:49;;;;;;;19.50;12.10;;;;;;;29.97;74.50;101129.69;4998859;28;70541;-30
2024/03/19 00:14:18;;;;;;;15.57;11.38;;;;;;;29.97;73.84;101138.63;5011693;28;65855;-30
2024/03/19 00:16:47;;;;;;;16.67;11.02;;;;;;;30.00;75.50;101146.31;5022383;28;70748;-30
2024/03/19 00:19:17;;;;;;;17.95;10.52;;;;;;;29.95;74.82;101132.59;5035841;28;66275;-30
2024/03/19 00:21:46;;;;;;;30.17;10.23;;;;;;;29.99;74.96;101146.53;5028465;28;69250;-31
2024/03/19 00:24:14;;;;;;;19.90;10.70;;;;;;;30.02;74.56;101165.06;5024295;28;65805;-30
2024/03/19 00:26:43;;;;;;;17.98;11.23;;;;;;;30.04;75.41;101149.47;5017880;28;69428;-31
2024/03/19 00:29:12;;;;;;;11.80;10.63;;;;;;;30.06;74.51;101163.59;5017979;28;66520;-30
2024/03/19 00:31:41;;;;;;;18.70;10.60;;;;;;;30.05;76.02;101164.63;5017118;28;69984;-31
2024/03/19 00:34:09;;;;;;;19.10;11.02;;;;;;;30.08;75.61;101169.63;5033201;28;66868;-31
2024/03/19 00:36:38;;;;;;;11.82;10.50;;;;;;;30.12;74.73;101165.47;4993493;28;69705;-37
2024/03/19 00:39:10;;;;;;;13.45;10.15;;;;;;;30.11;75.18;101169.22;5013390;28;65998;-31
2024/03/19 00:41:41;;;;;;;13.75;10.23;;;;;;;30.10;75.14;101175.69;5032320;28;69977;-31
2024/03/19 00:44:10;;;;;;;14.33;10.13;;;;;;;30.12;75.16;101176.31;5031849;28;66166;-31
2024/03/19 00:46:38;;;;;;;12.45;9.75;;;;;;;30.14;75.64;101176.91;5053516;28;69753;-30
2024/03/19 00:49:07;;;;;;;16.05;9.82;;;;;;;30.16;74.83;101172.13;5046315;28;65582;-30
2024/03/19 00:51:36;;;;;;;12.00;9.48;;;;;;;30.19;75.14;101179.81;5045841;28;70409;-31
2024/03/19 00:54:05;;;;;;;12.52;9.40;;;;;;;30.20;75.18;101184.22;5032801;28;66419;-30
2024/03/19 00:56:33;;;;;;;12.00;9.02;;;;;;;30.25;74.61;101197.97;5030769;28;69151;-31
2024/03/19 00:59:02;;;;;;;14.02;9.85;;;;;;;30.23;74.89;101194.66;5028210;28;66244;-31
2024/03/19 01:01:32;;;;;;;11.90;9.45;;;;;;;30.25;75.00;101192.53;5021863;28;70645;-30
2024/03/19 01:04:01;;;;;;;10.98;9.40;;;;;;;30.28;74.96;101197.56;5020258;28;65396;-30
2024/03/19 01:06:30;;;;;;;13.32;9.27;;;;;;;30.32;74.45;101197.16;5021758;28;70821;-31
2024/03/19 01:08:59;;;;;;;9.88;8.70;;;;;;;30.38;73.89;101207.13;5034801;28;65313;-31
2024/03/19 01:11:28;;;;;;;9.68;8.77;;;;;;;30.40;73.99;101205.88;5035945;28;70381;-31
2024/03/19 01:13:57;;;;;;;10.15;8.90;;;;;;;30.43;73.66;101210.03;5024826;28;65576;-32
2024/03/19 01:16:26;;;;;;;9.48;8.75;;;;;;;30.43;73.70;101215.47;5012695;28;70022;-31
2024/03/19 01:18:55;;;;;;;9.68;8.75;;;;;;;30.44;73.69;101219.81;5025053;28;67543;-31
2024/03/19 01:21:24;;;;;;;9.55;8.35;;;;;;;30.45;73.43;101219.63;5023423;28;69450;-31
2024/03/19 01:23:53;;;;;;;10.05;8.70;;;;;;;30.44;73.15;101214.41;5021517;28;66365;-31
2024/03/19 01:26:22;;;;;;;9.10;8.20;;;;;;;30.50;73.23;101227.09;5023814;28;70089;-32
2024/03/19 01:28:51;;;;;;;9.45;8.60;;;;;;;30.50;73.62;101227.09;5002456;28;66216;-31
2024/03/19 01:31:20;;;;;;;11.15;8.52;;;;;;;30.54;73.37;101233.78;5034063;28;69977;-34
2024/03/19 01:33:48;;;;;;;9.32;8.55;;;;;;;30.53;73.05;101226.69;5028505;28;66742;-32
2024/03/19 01:36:17;;;;;;;10.18;9.05;;;;;;;30.55;73.06;101230.00;5003543;28;70544;-32
2024/03/19 01:38:46;;;;;;;11.32;9.50;;;;;;;30.54;73.00;101233.78;5020219;28;66469;-30
2024/03/19 01:41:18;;;;;;;8.50;7.80;;;;;;;30.61;72.99;101240.00;5021010;28;69614;-31
2024/03/19 01:43:47;;;;;;;;;;;;;;;30.49;73.93;101241.69;5025141;28;66439;-32
2024/03/19 01:46:28;;;;;;;9.38;8.55;;;;;;;30.66;72.50;101247.50;5008069;28;70148;-31
2024/03/19 01:48:59;;;;;;;11.10;8.57;;;;;;;30.68;72.76;101251.66;5025284;28;66522;-32
2024/03/19 01:51:28;;;;;;;9.30;8.52;;;;;;;30.69;72.62;101247.91;5028453;28;69926;-30
2024/03/19 01:53:57;;;;;;;11.65;9.13;;;;;;;30.71;72.43;101251.25;5023807;28;67265;-30
2024/03/19 01:56:28;;;;;;;8.88;8.10;;;;;;;30.53;72.36;101218.56;5027034;28;69795;-31
2024/03/19 01:58:59;;;;;;;9.45;8.55;;;;;;;30.72;72.26;101250.19;5038054;28;66324;-31
2024/03/19 02:01:28;;;;;;;11.13;8.30;;;;;;;30.77;72.35;101246.03;5015541;28;70473;-31
2024/03/19 02:03:58;;;;;;;8.93;8.02;;;;;;;30.68;72.47;101238.13;5021673;28;65673;-31
2024/03/19 02:06:27;;;;;;;10.20;7.65;;;;;;;30.83;71.90;101242.50;5026527;28;70227;-31
2024/03/19 02:09:05;;;;;;;9.32;8.48;;;;;;;30.81;72.50;101244.59;5029744;28;66336;-32
2024/03/19 02:11:34;;;;;;;10.23;8.70;;;;;;;30.88;71.91;101240.00;5028028;28;70173;-31
2024/03/19 02:14:05;;;;;;;8.48;7.90;;;;;;;30.88;71.80;101242.72;5001627;28;66288;-32
2024/03/19 02:16:35;;;;;;;7.97;7.45;;;;;;;30.93;72.49;101253.75;5006887;28;70146;-33
2024/03/19 02:19:07;;;;;;;8.77;7.95;;;;;;;30.96;71.85;101253.31;5026997;28;66233;-32
2024/03/19 02:21:35;;;;;;;;;;;;;;;30.89;72.27;101252.50;5021040;28;70406;-32
2024/03/19 02:24:04;;;;;;;9.02;7.93;;;;;;;30.98;71.96;101243.13;5015147;28;65627;-32
2024/03/19 02:26:33;;;;;;;8.52;7.88;;;;;;;31.04;71.77;101255.81;5048243;28;69559;-31
2024/03/19 02:29:02;;;;;;;9.32;8.32;;;;;;;31.06;71.62;101253.69;5035485;28;65637;-31
2024/03/19 02:31:31;;;;;;;7.88;7.18;;;;;;;31.09;71.67;101253.28;5028719;28;71197;-30
2024/03/19 02:34:00;;;;;;;8.50;7.65;;;;;;;31.08;72.06;101256.19;5019677;28;66673;-32
2024/03/19 02:36:29;;;;;;;11.30;8.13;;;;;;;31.15;71.84;101252.44;5024748;28;69899;-31
2024/03/19 02:38:57;;;;;;;8.23;7.45;;;;;;;31.19;71.50;101258.25;5040162;28;67067;-33
2024/03/19 02:41:26;;;;;;;8.80;8.02;;;;;;;31.23;71.53;101262.22;5023993;28;69342;-32
2024/03/19 02:43:55;;;;;;;8.27;7.32;;;;;;;31.26;71.45;101263.63;5028671;28;65741;-33
2024/03/19 02:46:24;;;;;;;8.35;7.55;;;;;;;31.27;71.78;101254.47;5023122;28;70045;-31
2024/03/19 02:48:53;;;;;;;10.15;7.35;;;;;;;31.31;71.04;101253.00;5027661;28;66396;-31
2024/03/19 02:51:23;;;;;;;7.95;7.25;;;;;;;31.34;71.27;101257.97;5041881;28;70418;-35
2024/03/19 02:53:52;;;;;;;8.55;7.75;;;;;;;31.36;71.45;101247.78;4997348;28;66437;-32
2024/03/19 02:56:20;;;;;;;8.90;8.07;;;;;;;31.41;71.14;101239.84;5002422;28;69920;-33
2024/03/19 02:58:49;;;;;;;8.55;7.72;;;;;;;31.42;71.28;101241.50;5017480;28;66237;-31
2024/03/19 03:01:18;;;;;;;8.63;7.68;;;;;;;31.46;70.80;101242.75;5027435;28;70366;-31
2024/03/19 03:03:47;;;;;;;8.48;7.70;;;;;;;31.51;70.87;101239.38;5050331;28;66434;-31
2024/03/19 03:06:16;;;;;;;9.95;7.70;;;;;;;31.53;70.92;101242.72;5038380;28;69647;-31
2024/03/19 03:08:45;;;;;;;8.27;7.63;;;;;;;31.55;70.99;101246.88;5036153;28;66192;-31
2024/03/19 03:11:14;;;;;;;9.75;7.57;;;;;;;31.56;71.06;101226.81;5034172;28;69557;-32
2024/03/19 03:13:43;;;;;;;8.60;7.78;;;;;;;31.63;70.85;101231.41;5035382;28;65928;-33
2024/03/19 03:16:12;;;;;;;9.60;8.65;;;;;;;31.63;70.81;101220.56;5020965;28;69615;-30
2024/03/19 03:18:40;;;;;;;8.05;7.45;;;;;;;31.69;70.50;101219.69;5041735;28;66602;-31
2024/03/19 03:21:09;;;;;;;9.25;8.55;;;;;;;31.56;70.75;101193.47;5026786;28;69432;-31
2024/03/19 03:23:39;;;;;;;9.32;8.43;;;;;;;31.75;70.53;101207.97;5040519;28;66273;-32
2024/03/19 03:26:08;;;;;;;10.35;8.13;;;;;;;31.77;70.65;101214.00;5028716;28;71067;-33
2024/03/19 03:28:37;;;;;;;7.82;7.22;;;;;;;31.82;70.48;101208.75;5017906;28;66383;-36
2024/03/19 03:31:06;;;;;;;7.85;7.25;;;;;;;31.85;70.43;101208.31;5018222;28;70037;-30
2024/03/19 03:33:35;;;;;;;8.80;8.00;;;;;;;31.82;70.31;101197.91;5018641;28;66573;-33
2024/03/19 03:36:04;;;;;;;8.45;7.85;;;;;;;31.91;70.25;101207.47;5003332;28;69675;-34
2024/03/19 03:38:33;;;;;;;8.05;7.43;;;;;;;31.91;70.04;101196.63;5023549;28;65871;-32
2024/03/19 03:41:07;;;;;;;8.10;7.45;;;;;;;31.96;70.56;101201.38;5021076;28;70843;-33
2024/03/19 03:43:36;;;;;;;7.85;7.28;;;;;;;31.96;70.18;101191.38;5028850;28;66000;-31
2024/03/19 03:46:05;;;;;;;8.48;7.78;;;;;;;32.01;70.06;101179.81;5044331;28;70384;-34
2024/03/19 03:48:34;;;;;;;8.68;7.70;;;;;;;32.06;69.88;101174.56;5031559;28;66702;-33
2024/03/19 03:51:03;;;;;;;7.93;7.43;;;;;;;32.05;69.88;101160.19;5047543;28;69824;-31
2024/03/19 03:53:32;;;;;;;7.47;6.82;;;;;;;32.11;69.83;101168.50;5032920;28;66001;-32
2024/03/19 03:56:01;;;;;;;9.38;8.40;;;;;;;32.13;69.72;101166.41;5022938;28;70158;-34
2024/03/19 03:58:30;;;;;;;9.25;7.32;;;;;;;32.18;69.84;101174.69;5021391;28;66672;-32
2024/03/19 04:01:02;;;;;;;8.55;7.95;;;;;;;32.20;69.65;101167.16;5026389;28;69762;-32
2024/03/19 04:03:31;;;;;;;8.45;7.75;;;;;;;32.22;69.66;101165.06;5029079;28;66407;-32
2024/03/19 04:06:00;;;;;;;8.30;7.70;;;;;;;32.25;69.55;101151.03;5031341;28;70447;-31
2024/03/19 04:08:30;;;;;;;8.98;8.07;;;;;;;32.28;69.37;101151.41;5043860;28;66298;-32
2024/03/19 04:10:59;;;;;;;11.02;8.82;;;;;;;32.25;69.44;101132.03;5024422;28;69755;-34
2024/03/19 04:13:28;;;;;;;10.00;8.52;;;;;;;32.34;69.28;101140.72;5013469;28;65459;-34
2024/03/19 04:15:57;;;;;;;10.52;9.60;;;;;;;32.38;69.24;101136.50;5045484;28;69959;-31
2024/03/19 04:18:26;;;;;;;10.63;9.82;;;;;;;32.35;69.16;101126.94;5046602;28;65393;-30
2024/03/19 04:20:55;;;;;;;10.50;9.57;;;;;;;32.31;69.17;101106.69;5038690;28;70936;-32
2024/03/19 04:23:24;;;;;;;11.02;10.13;;;;;;;32.38;68.94;101107.47;5018906;28;66829;-31
2024/03/19 04:25:52;;;;;;;12.05;10.73;;;;;;;32.47;69.06;101110.75;5017208;28;69569;-32
2024/03/19 04:28:21;;;;;;;10.02;9.23;;;;;;;32.51;68.98;101113.81;5028109;28;66421;-30
2024/03/19 04:30:50;;;;;;;11.13;10.20;;;;;;;32.54;68.86;101110.66;5025258;28;69696;-31
2024/03/19 04:33:19;;;;;;;10.65;9.88;;;;;;;32.53;68.79;101084.56;5023418;28;65794;-31
2024/03/19 04:35:48;;;;;;;11.23;10.32;;;;;;;32.59;68.73;101083.66;5020296;28;70676;-31
2024/03/19 04:38:17;;;;;;;11.05;10.18;;;;;;;32.59;68.80;101072.78;5044302;28;66414;-33
2024/03/19 04:40:45;;;;;;;14.68;10.32;;;;;;;32.63;68.57;101080.28;5025661;28;70094;-30
2024/03/19 04:43:14;;;;;;;11.23;10.10;;;;;;;32.61;68.62;101076.13;5017217;28;66708;-31
2024/03/19 04:45:43;;;;;;;11.95;10.07;;;;;;;32.66;68.54;101074.38;5045784;28;69471;-31
2024/03/19 04:48:12;;;;;;;11.75;9.80;;;;;;;32.70;68.44;101061.97;5013788;28;66578;-32
2024/03/19 04:50:41;;;;;;;11.40;10.45;;;;;;;32.73;68.41;101057.97;5017783;28;70590;-32
2024/03/19 04:53:10;;;;;;;15.18;10.52;;;;;;;32.72;68.42;101056.34;5029036;28;65804;-32
2024/03/19 04:55:40;;;;;;;10.25;9.55;;;;;;;32.77;68.56;101048.34;5053798;28;70313;-33
2024/03/19 04:58:09;;;;;;;10.85;9.93;;;;;;;32.81;68.29;101043.25;5023854;28;65329;-31
2024/03/19 05:00:39;;;;;;;10.60;9.68;;;;;;;32.80;68.25;101031.56;5031114;28;70301;-32
2024/03/19 05:03:08;;;;;;;11.43;10.13;;;;;;;32.84;68.30;101035.47;5025868;28;65823;-33
2024/03/19 05:05:37;;;;;;;10.70;9.73;;;;;;;32.85;68.11;101034.44;5026460;28;70191;-32
2024/03/19 05:08:06;;;;;;;10.20;9.27;;;;;;;32.88;68.28;101011.41;5029419;28;66264;-31
2024/03/19 05:10:35;;;;;;;10.05;9.13;;;;;;;32.91;68.17;101013.66;5025676;28;70373;-31
2024/03/19 05:13:05;;;;;;;10.82;9.80;;;;;;;32.94;68.10;100992.28;5023210;28;66254;-31
2024/03/19 05:15:33;;;;;;;11.05;9.98;;;;;;;32.93;68.41;101004.22;5027142;28;70613;-31
2024/03/19 05:18:02;;;;;;;11.52;9.50;;;;;;;32.97;67.97;100992.88;5041364;28;66153;-31
2024/03/19 05:20:31;;;;;;;11.07;9.98;;;;;;;33.01;67.86;100991.38;5027832;28;69156;-32
2024/03/19 05:23:00;;;;;;;10.23;9.43;;;;;;;33.05;67.81;100989.88;5022990;28;66337;-32
2024/03/19 05:25:29;;;;;;;10.48;9.48;;;;;;;33.07;67.92;100993.16;5026206;28;69828;-34
2024/03/19 05:27:58;;;;;;;10.60;9.57;;;;;;;33.08;68.01;100989.41;5024817;28;66150;-34
2024/03/19 05:30:29;;;;;;;9.60;8.80;;;;;;;33.12;67.82;100985.97;5028965;28;70511;-32
2024/03/19 05:32:58;;;;;;;10.43;9.63;;;;;;;33.12;67.62;100979.69;5043843;28;66291;-32
2024/03/19 05:35:27;;;;;;;8.98;8.38;;;;;;;33.11;67.39;100964.47;5030420;28;69279;-33
2024/03/19 05:37:57;;;;;;;10.00;9.00;;;;;;;33.23;67.15;100970.75;5030815;28;66317;-31
2024/03/19 05:40:26;;;;;;;9.77;9.02;;;;;;;33.24;67.52;100956.09;5030903;28;70091;-31
2024/03/19 05:42:55;;;;;;;10.05;9.02;;;;;;;33.25;67.26;100962.38;5030316;28;66196;-35
2024/03/19 05:45:24;;;;;;;9.52;8.88;;;;;;;33.29;67.17;100953.50;5010401;28;70039;-32
2024/03/19 05:47:52;;;;;;;9.43;8.82;;;;;;;33.33;66.96;100954.69;5033854;28;66200;-33
2024/03/19 05:50:22;;;;;;;9.77;8.88;;;;;;;33.37;67.16;100955.03;5046743;28;70445;-31
2024/03/19 05:52:50;;;;;;;11.65;8.55;;;;;;;33.38;66.86;100941.22;5021506;28;65687;-32
2024/03/19 05:55:19;;;;;;;9.40;8.60;;;;;;;33.42;66.85;100946.19;5034597;28;70038;-33
2024/03/19 05:57:48;;;;;;;10.35;9.13;;;;;;;33.45;66.87;100934.81;5028245;28;65387;-31
2024/03/19 06:00:21;;;;;;;9.38;8.52;;;;;;;33.42;66.92;100940.75;5023229;28;70671;-32
2024/03/19 06:02:50;;;;;;;9.13;8.38;;;;;;;33.51;66.83;100939.31;5028557;28;66221;-32
2024/03/19 06:05:19;;;;;;;9.85;8.80;;;;;;;33.52;66.73;100927.38;5041196;28;70394;-31
2024/03/19 06:07:48;;;;;;;9.70;8.88;;;;;;;33.57;66.63;100927.50;5025220;28;65012;-32
2024/03/19 06:10:17;;;;;;;8.93;8.05;;;;;;;33.58;66.73;100918.31;5009460;28;69205;-32
2024/03/19 06:12:47;;;;;;;9.23;8.52;;;;;;;33.61;67.08;100923.25;5010396;28;66621;-33
2024/03/19 06:15:15;;;;;;;8.50;7.70;;;;;;;33.66;66.51;100923.38;5030150;28;70872;-33
2024/03/19 06:17:44;;;;;;;9.02;8.40;;;;;;;33.55;66.66;100897.84;5033550;28;66149;-32
2024/03/19 06:20:18;;;;;;;8.73;7.88;;;;;;;33.72;66.40;100913.44;5026341;28;70695;-31
2024/03/19 06:22:47;;;;;;;8.23;7.50;;;;;;;33.75;66.53;100918.41;5027047;28;65389;-33
2024/03/19 06:25:16;;;;;;;8.45;7.68;;;;;;;33.77;66.64;100911.66;5028020;28;70144;-32
2024/03/19 06:27:45;;;;;;;8.70;8.20;;;;;;;33.80;66.63;100900.28;5030931;28;66632;-31
2024/03/19 06:30:14;;;;;;;8.07;7.57;;;;;;;33.85;66.35;100901.44;5022420;28;70130;-31
2024/03/19 06:32:43;;;;;;;7.78;7.28;;;;;;;33.87;66.34;100905.59;5028812;28;66567;-31
2024/03/19 06:35:14;;;;;;;7.63;7.20;;;;;;;33.91;66.36;100892.34;5046980;28;70826;-31
2024/03/19 06:37:43;;;;;;;9.93;7.10;;;;;;;33.93;66.29;100898.34;5026346;28;67086;-30
2024/03/19 06:40:13;;;;;;;7.95;7.45;;;;;;;33.99;66.25;100886.50;5034738;28;69392;-34
2024/03/19 06:42:42;;;;;;;7.45;6.85;;;;;;;34.03;66.30;100882.25;5028699;28;65280;-31
2024/03/19 06:45:11;;;;;;;8.00;7.40;;;;;;;34.06;66.12;100884.50;5025615;28;70876;-34
2024/03/19 06:47:40;;;;;;;7.50;6.95;;;;;;;34.11;66.23;100883.78;5022941;28;65817;-32
2024/03/19 06:50:14;;;;;;;7.50;7.00;;;;;;;34.09;66.02;100864.16;5028916;28;69965;-33
2024/03/19 06:52:44;;;;;;;7.78;7.10;;;;;;;34.19;65.80;100867.06;5043273;28;66542;-32
2024/03/19 06:55:14;;;;;;;7.78;7.18;;;;;;;34.23;65.91;100854.59;5028527;28;70650;-32
2024/03/19 06:57:43;;;;;;;7.75;7.05;;;;;;;34.14;65.72;100846.00;5023493;28;65687;-31
2024/03/19 07:00:14;;;;;;;7.78;7.10;;;;;;;34.28;66.00;100854.72;5025351;28;70585;-31
2024/03/19 07:02:44;;;;;;;7.22;6.65;;;;;;;34.36;65.92;100864.38;5023627;28;66846;-31
2024/03/19 07:05:13;;;;;;;8.02;7.38;;;;;;;34.33;65.59;100849.34;5004939;28;69574;-31
2024/03/19 07:07:42;;;;;;;7.15;6.65;;;;;;;34.46;66.08;100853.66;5028608;28;67009;-31
2024/03/19 07:10:12;;;;;;;7.15;6.57;;;;;;;34.50;65.82;100857.56;5001176;28;70005;-31
2024/03/19 07:12:41;;;;;;;7.72;7.13;;;;;;;34.56;65.65;100864.78;5031380;28;65961;-31
2024/03/19 07:15:10;;;;;;;6.63;6.13;;;;;;;34.61;65.84;100861.31;5029684;28;69703;-31
2024/03/19 07:17:41;;;;;;;7.20;6.57;;;;;;;34.65;65.37;100846.94;5026702;28;65823;-30
2024/03/19 07:20:12;;;;;;;10.23;6.50;;;;;;;34.66;65.26;100840.44;5030666;28;70013;-32
2024/03/19 07:22:41;;;;;;;7.80;7.00;;;;;;;34.75;65.48;100843.56;5022338;28;66090;-32
2024/03/19 07:25:13;;;;;;;9.48;6.75;;;;;;;34.83;65.43;100842.34;5013906;28;69760;-32
2024/03/19 07:27:43;;;;;;;7.05;6.60;;;;;;;34.89;65.03;100846.78;5013955;28;65690;-31
2024/03/19 07:30:13;;;;;;;7.07;6.35;;;;;;;34.86;65.37;100833.66;5025532;28;70403;-30
2024/03/19 07:32:43;;;;;;;6.20;5.60;;;;;;;34.97;65.35;100821.03;5024775;28;66476;-31
2024/03/19 07:35:12;;;;;;;6.00;5.60;;;;;;;35.03;65.41;100826.28;5025233;28;69672;-32
2024/03/19 07:37:41;;;;;;;5.55;5.25;;;;;;;35.09;65.26;100830.75;5016588;28;66061;-32
2024/03/19 07:40:12;;;;;;;7.00;5.85;;;;;;;35.15;65.27;100834.38;5022684;28;70581;-31
2024/03/19 07:42:42;;;;;;;8.38;5.75;;;;;;;35.21;64.76;100827.09;5017517;28;66632;-33
2024/03/19 07:45:11;;;;;;;6.65;5.88;;;;;;;35.25;65.15;100817.34;5029032;28;69915;-32
2024/03/19 07:47:40;;;;;;;6.13;5.63;;;;;;;35.31;64.68;100819.88;5032469;28;65918;-32
2024/03/19 07:50:10;;;;;;;6.32;5.93;;;;;;;35.37;65.00;100820.78;5007973;28;70585;-32
2024/03/19 07:52:40;;;;;;;8.23;5.97;;;;;;;35.40;64.98;100798.44;5002969;28;66176;-31
2024/03/19 07:55:09;;;;;;;6.10;5.57;;;;;;;35.50;64.32;100798.59;5024872;28;70156;-32
2024/03/19 07:57:38;;;;;;;5.72;5.30;;;;;;;35.54;64.41;100791.53;5027707;28;64751;-31
2024/03/19 08:00:11;;;;;;;5.90;5.50;;;;;;;35.62;64.40;100793.03;5031412;28;70562;-31
2024/03/19 08:02:40;;;;;;;6.05;5.53;;;;;;;35.69;64.84;100784.63;5022824;28;66023;-33
2024/03/19 08:05:13;;;;;;;6.97;5.57;;;;;;;35.74;64.11;100788.25;5025022;28;69070;-35
2024/03/19 08:07:45;;;;;;;6.65;5.93;;;;;;;35.80;64.70;100776.31;5043450;28;66265;-31
2024/03/19 08:10:14;;;;;;;6.47;5.97;;;;;;;35.88;64.00;100769.56;5028135;28;69896;-32
2024/03/19 08:12:44;;;;;;;5.97;5.57;;;;;;;35.94;64.07;100776.75;5032397;28;66102;-37
2024/03/19 08:15:13;;;;;;;5.97;5.47;;;;;;;36.00;63.88;100775.69;5033699;28;70194;-32
2024/03/19 08:17:42;;;;;;;11.27;5.80;;;;;;;36.07;63.78;100769.25;5028310;28;66493;-32
2024/03/19 08:20:15;;;;;;;6.05;5.50;;;;;;;36.13;64.38;100770.94;5044278;28;69522;-33
2024/03/19 08:22:45;;;;;;;5.80;5.40;;;;;;;36.18;63.72;100770.97;5033741;28;66207;-32
2024/03/19 08:25:16;;;;;;;9.93;6.25;;;;;;;36.25;64.13;100768.88;5034921;28;70215;-33
2024/03/19 08:27:45;;;;;;;5.65;5.35;;;;;;;36.30;63.52;100771.63;5025681;28;66050;-33
2024/03/19 08:30:14;;;;;;;6.15;5.38;;;;;;;36.36;63.63;100762.41;5014780;28;70357;-32
2024/03/19 08:32:43;;;;;;;5.95;5.45;;;;;;;36.46;64.07;100767.94;5029672;28;66491;-33
2024/03/19 08:35:12;;;;;;;6.00;5.50;;;;;;;36.52;63.38;100765.25;5026417;28;70547;-32
2024/03/19 08:37:43;;;;;;;5.93;5.43;;;;;;;36.58;63.23;100764.22;5028463;28;65865;-35
2024/03/19 08:40:13;;;;;;;9.65;5.50;;;;;;;36.65;63.52;100764.81;5028411;28;69362;-33
2024/03/19 08:42:42;;;;;;;7.82;5.68;;;;;;;36.71;63.16;100771.97;5025074;28;66425;-31
2024/03/19 08:45:11;;;;;;;7.13;5.03;;;;;;;36.76;63.57;100766.53;5032682;28;70704;-31
2024/03/19 08:47:40;;;;;;;7.65;5.22;;;;;;;36.79;63.55;100760.53;5028736;28;66105;-33
2024/03/19 08:50:09;;;;;;;6.00;5.35;;;;;;;36.88;63.19;100771.78;5025745;28;69512;-32
2024/03/19 08:52:38;;;;;;;4.85;4.55;;;;;;;36.94;62.97;100762.53;5027686;28;66958;-34
2024/03/19 08:55:09;;;;;;;8.02;5.78;;;;;;;36.94;63.43;100756.25;4988828;28;69605;-33
2024/03/19 08:57:39;;;;;;;5.22;4.78;;;;;;;37.05;62.91;100775.19;5031288;28;66293;-32
2024/03/19 09:00:15;;;;;;;8.35;6.30;;;;;;;37.13;63.39;100773.88;5045521;28;70845;-32
2024/03/19 09:02:47;;;;;;;5.57;5.18;;;;;;;37.20;62.67;100779.94;5025948;28;66223;-31
2024/03/19 09:05:16;;;;;;;6.30;5.78;;;;;;;37.25;62.91;100779.97;5027392;28;69465;-33
2024/03/19 09:07:46;;;;;;;7.57;5.43;;;;;;;37.31;63.21;100789.84;5032070;28;66073;-32
2024/03/19 09:10:15;;;;;;;7.82;5.63;;;;;;;37.35;63.33;100779.19;5011511;28;70409;-35
2024/03/19 09:12:45;;;;;;;5.72;5.15;;;;;;;37.39;62.36;100782.19;5029285;28;66126;-33
2024/03/19 09:15:14;;;;;;;5.45;5.00;;;;;;;37.43;62.89;100791.53;5036944;28;69952;-32
2024/03/19 09:17:43;;;;;;;8.07;5.70;;;;;;;37.42;62.50;100787.13;5009184;28;65763;-31
2024/03/19 09:20:14;;;;;;;7.47;5.72;;;;;;;37.34;62.27;100794.78;5024759;28;69241;-32
2024/03/19 09:22:44;;;;;;;12.80;6.20;;;;;;;37.35;63.07;100796.41;5012510;28;67141;-34
2024/03/19 09:25:13;;;;;;;5.45;4.95;;;;;;;37.39;62.59;100806.81;5023287;28;69300;-33
2024/03/19 09:27:42;;;;;;;6.15;5.55;;;;;;;37.40;62.40;100811.22;5043176;28;66483;-33
2024/03/19 09:30:12;;;;;;;7.75;5.95;;;;;;;37.40;62.13;100803.00;5010519;28;70950;-32
2024/03/19 09:32:41;;;;;;;8.82;5.50;;;;;;;37.39;62.17;100804.09;5031857;28;66388;-35
2024/03/19 09:35:11;;;;;;;10.55;5.15;;;;;;;37.35;62.75;100806.53;5034427;28;70228;-31
2024/03/19 09:37:43;;;;;;;7.70;5.65;;;;;;;37.37;62.65;100811.75;5027167;28;66462;-33
2024/03/19 09:40:14;;;;;;;11.05;5.85;;;;;;;37.46;63.08;100819.16;5038889;28;70584;-32
2024/03/19 09:42:43;;;;;;;8.63;5.80;;;;;;;37.35;62.76;100812.81;5027259;28;65633;-31
2024/03/19 09:45:23;;;;;;;8.90;6.20;;;;;;;37.21;62.05;100799.91;5015662;28;70536;-31
2024/03/19 09:47:52;;;;;;;10.30;5.35;;;;;;;37.43;62.44;100835.31;5022155;28;66300;-31
2024/03/19 09:50:21;;;;;;;5.93;5.40;;;;;;;37.48;62.79;100832.59;5029751;28;70211;-32
2024/03/19 09:52:57;;;;;;;6.03;5.53;;;;;;;37.48;62.16;100832.59;5033962;28;65339;-32
2024/03/19 09:55:26;;;;;;;6.78;5.43;;;;;;;37.43;62.06;100835.31;5031724;28;70587;-31
2024/03/19 09:57:57;;;;;;;6.53;5.97;;;;;;;37.43;62.95;100838.03;5028736;28;66008;-32
2024/03/19 10:00:28;;;;;;;10.52;5.50;;;;;;;37.45;62.65;100839.44;5025885;28;70771;-31
2024/03/19 10:02:58;;;;;;;12.25;5.95;;;;;;;37.45;61.87;100827.66;5032315;28;67218;-31
2024/03/19 10:05:26;;;;;;;8.75;6.07;;;;;;;37.45;62.54;100838.59;5028244;28;69950;-35
2024/03/19 10:07:56;;;;;;;12.65;5.90;;;;;;;37.47;62.12;100850.09;5047464;28;66614;-33
2024/03/19 10:10:26;;;;;;;6.93;6.00;;;;;;;37.48;62.68;100849.00;5023204;28;69217;-31
2024/03/19 10:12:59;;;;;;;13.30;5.50;;;;;;;37.40;62.18;100850.34;5022925;28;66312;-32
2024/03/19 10:15:28;;;;;;;9.80;5.97;;;;;;;37.44;62.30;100856.91;5035764;28;70488;-32
2024/03/19 10:17:57;;;;;;;6.78;5.53;;;;;;;37.45;62.18;100855.03;5026771;28;66267;-33
2024/03/19 10:20:29;;;;;;;9.13;6.00;;;;;;;37.37;61.83;100859.09;5046228;28;70431;-33
2024/03/19 10:23:00;;;;;;;11.20;6.22;;;;;;;37.43;62.50;100868.13;5015130;28;65868;-32
2024/03/19 10:25:29;;;;;;;6.70;5.68;;;;;;;37.41;62.44;100881.25;5009289;28;70175;-31
2024/03/19 10:27:58;;;;;;;10.75;6.22;;;;;;;37.40;62.23;100877.69;5024429;28;66892;-31
2024/03/19 10:30:28;;;;;;;9.75;5.60;;;;;;;37.35;61.96;100873.00;5007920;28;70151;-32
2024/03/19 10:32:58;;;;;;;8.45;5.97;;;;;;;37.28;61.91;100877.09;5031752;28;65902;-33
2024/03/19 10:35:29;;;;;;;8.00;6.47;;;;;;;37.21;61.89;100882.78;5040437;28;69906;-31
2024/03/19 10:37:58;;;;;;;6.47;5.17;;;;;;;37.22;61.98;100884.44;5013392;28;65424;-32
2024/03/19 10:40:29;;;;;;;8.73;5.82;;;;;;;37.22;62.19;100878.97;5022691;28;70534;-31
2024/03/19 10:42:58;;;;;;;9.38;5.32;;;;;;;37.21;61.85;100880.03;5026325;28;65919;-32
2024/03/19 10:45:29;;;;;;;7.50;5.85;;;;;;;37.12;62.17;100884.38;5027960;28;70029;-33
2024/03/19 10:47:58;;;;;;;9.68;5.95;;;;;;;37.08;62.20;100877.75;5029304;28;66554;-32
2024/03/19 10:50:27;;;;;;;14.52;5.70;;;;;;;37.02;61.95;100879.63;5037746;28;70170;-32
2024/03/19 10:53:04;;;;;;;7.20;6.50;;;;;;;37.01;61.88;100890.81;5048186;28;66533;-33
2024/03/19 10:55:36;;;;;;;7.25;5.45;;;;;;;36.82;62.19;100884.94;5028337;28;70153;-32
2024/03/19 10:58:10;;;;;;;11.32;6.10;;;;;;;36.91;62.02;100886.91;5023214;28;66038;-39
2024/03/19 11:00:42;;;;;;;6.53;5.82;;;;;;;36.86;62.16;100883.31;5013501;28;70036;-32
2024/03/19 11:03:18;;;;;;;9.55;5.93;;;;;;;36.80;62.20;100879.72;5022604;28;66039;-31
2024/03/19 11:05:56;;;;;;;6.80;6.05;;;;;;;36.78;62.37;100887.38;5021032;28;68818;-31
2024/03/19 11:08:26;;;;;;;6.82;6.13;;;;;;;36.74;62.41;100888.97;5013816;28;66402;-34
2024/03/19 11:11:09;;;;;;;6.38;5.78;;;;;;;36.63;62.44;100889.97;5007848;28;70622;-35
2024/03/19 11:13:38;;;;;;;6.63;5.93;;;;;;;36.53;62.82;100882.50;5016155;28;66008;-34
2024/03/19 11:16:14;;;;;;;9.05;5.57;;;;;;;36.63;62.94;100882.56;5021111;28;69422;-33
2024/03/19 11:18:44;;;;;;;12.93;6.00;;;;;;;36.54;62.73;100888.78;5043363;28;66725;-34
2024/03/19 11:21:21;;;;;;;13.18;5.88;;;;;;;36.44;62.53;100895.78;5024021;28;70185;-32
2024/03/19 11:23:56;;;;;;;11.18;6.20;;;;;;;36.43;62.61;100896.84;5013005;28;66629;-31
2024/03/19 11:26:27;;;;;;;6.57;5.97;;;;;;;36.32;63.49;100897.84;5022250;28;70124;-34
2024/03/19 11:29:00;;;;;;;11.50;6.40;;;;;;;36.33;62.74;100904.97;5022800;28;66346;-33
2024/03/19 11:31:39;;;;;;;11.00;6.13;;;;;;;36.25;63.13;100913.63;5025170;28;70357;-31
2024/03/19 11:34:15;;;;;;;7.80;6.45;;;;;;;36.19;63.60;100906.41;5021323;28;66496;-32